Time;durP1;ratioP1;P1;durP2;ratioP2;P2;SDS_P1;SDS_P2;PMS_P1;PMS_P2;Temp;Humidity;BMP_temperature;BMP_pressure;BME280_temperature;BME280_humidity;BME280_pressure;Samples;Min_cycle;Max_cycle;Signal;HPM_P1;HPM_P2
2023/08/20 00:00:24;;;;;;;31.92;24.38;;;21.90;99.90;;;;;;5007361;28;20030;-56
2023/08/20 00:02:54;;;;;;;32.60;23.98;;;21.90;99.90;;;;;;5007406;28;20022;-56
2023/08/20 00:05:20;;;;;;;26.08;22.38;;;21.90;99.90;;;;;;5006038;28;20022;-55
2023/08/20 00:07:46;;;;;;;30.73;23.73;;;21.80;99.90;;;;;;5007458;28;20051;-55
2023/08/20 00:10:12;;;;;;;25.65;22.00;;;21.80;99.90;;;;;;5007258;28;20029;-55
2023/08/20 00:12:38;;;;;;;30.15;23.17;;;21.80;99.90;;;;;;5007410;28;20044;-55
2023/08/20 00:15:04;;;;;;;26.60;20.83;;;21.80;99.90;;;;;;5006757;28;20453;-56
2023/08/20 00:17:35;;;;;;;29.95;25.83;;;21.80;99.90;;;;;;5006948;28;20503;-55
2023/08/20 00:20:03;;;;;;;29.10;22.15;;;21.80;99.90;;;;;;5007261;28;20030;-56
2023/08/20 00:22:30;;;;;;;31.25;24.73;;;21.90;99.90;;;;;;5007074;28;20386;-56
2023/08/20 00:24:56;;;;;;;30.40;23.08;;;21.80;99.90;;;;;;5006878;28;20022;-56
2023/08/20 00:27:21;;;;;;;41.42;25.95;;;21.80;99.90;;;;;;5005581;28;20298;-56
2023/08/20 00:29:47;;;;;;;36.20;27.27;;;21.90;99.90;;;;;;5007128;28;20026;-56
2023/08/20 00:32:14;;;;;;;37.63;29.70;;;21.90;99.90;;;;;;5006764;28;20029;-56
2023/08/20 00:34:40;;;;;;;35.10;25.65;;;21.90;99.90;;;;;;5006819;28;20026;-57
2023/08/20 00:37:05;;;;;;;30.80;25.75;;;21.80;99.90;;;;;;5006604;28;20079;-56
2023/08/20 00:39:31;;;;;;;31.85;24.42;;;21.80;99.90;;;;;;5006817;28;20054;-57
2023/08/20 00:41:56;;;;;;;28.38;22.98;;;21.90;99.90;;;;;;5006834;28;20029;-56
2023/08/20 00:44:22;;;;;;;29.85;22.00;;;21.90;99.90;;;;;;5006455;28;20430;-57
2023/08/20 00:46:48;;;;;;;27.85;22.75;;;21.90;99.90;;;;;;5008245;28;20022;-57
2023/08/20 00:49:13;;;;;;;36.17;26.48;;;21.90;99.90;;;;;;5002505;28;20118;-56
2023/08/20 00:51:39;;;;;;;30.85;23.13;;;21.90;99.90;;;;;;5010421;28;20415;-56
2023/08/20 00:54:05;;;;;;;30.38;24.08;;;21.80;99.90;;;;;;5010486;28;20038;-56
2023/08/20 00:56:31;;;;;;;33.63;22.85;;;21.80;99.90;;;;;;5010710;28;20022;-56
2023/08/20 00:58:57;;;;;;;28.30;24.10;;;21.90;99.90;;;;;;5010295;28;20037;-56
2023/08/20 01:01:23;;;;;;;34.00;25.52;;;21.80;99.90;;;;;;5010230;28;20014;-56
2023/08/20 01:03:48;;;;;;;23.67;21.10;;;21.90;99.90;;;;;;5010212;28;20399;-56
2023/08/20 01:06:46;;;;;;;28.95;22.67;;;21.80;99.90;;;;;;5009879;28;20485;-56
2023/08/20 01:09:39;;;;;;;31.70;23.50;;;21.80;99.90;;;;;;5008748;28;20570;-56
2023/08/20 01:12:06;;;;;;;25.05;21.02;;;21.80;99.90;;;;;;5010074;28;20132;-56
2023/08/20 01:14:32;;;;;;;32.25;26.10;;;21.80;99.90;;;;;;5009838;28;20022;-56
2023/08/20 01:16:58;;;;;;;29.77;22.85;;;21.80;99.90;;;;;;5008412;28;20037;-56
2023/08/20 01:19:23;;;;;;;27.75;21.38;;;21.70;99.90;;;;;;5009797;28;20022;-56
2023/08/20 01:22:14;;;;;;;25.85;20.27;;;21.70;99.90;;;;;;5009944;28;20106;-56
2023/08/20 01:24:45;;;;;;;29.20;22.23;;;21.70;99.90;;;;;;5002770;28;20022;-56
2023/08/20 01:27:35;;;;;;;25.00;19.38;;;21.70;99.90;;;;;;5009376;28;20026;-56
2023/08/20 01:30:03;;;;;;;30.27;20.27;;;21.70;99.90;;;;;;5009662;28;20022;-58
2023/08/20 01:32:28;;;;;;;22.77;17.63;;;21.70;99.90;;;;;;5009881;28;20034;-56
2023/08/20 01:34:54;;;;;;;23.40;17.83;;;21.70;99.90;;;;;;5009427;28;20416;-55
2023/08/20 01:37:20;;;;;;;26.15;18.13;;;21.70;99.90;;;;;;5001235;28;20030;-56
2023/08/20 01:39:45;;;;;;;23.52;18.27;;;21.70;99.90;;;;;;5010043;28;20029;-55
2023/08/20 01:42:11;;;;;;;23.98;18.63;;;21.70;99.90;;;;;;5000060;28;20030;-55
2023/08/20 01:44:37;;;;;;;21.60;17.10;;;21.70;99.90;;;;;;5009086;28;20030;-56
2023/08/20 01:47:02;;;;;;;26.67;21.15;;;21.70;99.90;;;;;;5009555;28;20103;-56
2023/08/20 01:49:28;;;;;;;25.50;18.92;;;21.60;99.90;;;;;;5009433;28;20091;-56
2023/08/20 01:51:53;;;;;;;26.88;19.85;;;21.60;99.90;;;;;;5009513;28;20415;-56
2023/08/20 01:54:19;;;;;;;24.33;18.15;;;21.60;99.90;;;;;;5009131;28;20440;-54
2023/08/20 01:56:44;;;;;;;20.90;18.50;;;21.60;99.90;;;;;;5009246;28;20029;-56
2023/08/20 01:59:10;;;;;;;22.63;17.25;;;21.60;99.90;;;;;;5008003;28;20058;-56
2023/08/20 02:01:36;;;;;;;21.15;16.42;;;21.50;99.90;;;;;;5009279;28;20053;-56
2023/08/20 02:04:02;;;;;;;25.48;18.88;;;21.50;99.90;;;;;;5009294;28;20063;-54
2023/08/20 02:06:27;;;;;;;26.02;19.88;;;21.50;99.90;;;;;;5009047;28;20054;-54
2023/08/20 02:08:53;;;;;;;26.63;19.73;;;21.50;99.90;;;;;;5009072;28;20034;-56
2023/08/20 02:11:18;;;;;;;25.05;18.63;;;21.50;99.90;;;;;;5008862;28;20060;-56
2023/08/20 02:13:44;;;;;;;22.23;18.00;;;21.40;99.90;;;;;;5000639;28;20034;-55
2023/08/20 02:16:09;;;;;;;24.23;18.08;;;21.40;99.90;;;;;;5008443;28;20034;-55
2023/08/20 02:18:35;;;;;;;26.95;17.23;;;21.40;99.90;;;;;;5008681;28;20607;-56
2023/08/20 02:21:01;;;;;;;24.05;18.38;;;21.40;99.90;;;;;;5008909;28;20502;-55
2023/08/20 02:23:26;;;;;;;19.92;16.98;;;21.40;99.90;;;;;;5008798;28;20026;-57
2023/08/20 02:25:52;;;;;;;19.60;15.93;;;21.40;99.90;;;;;;5008467;28;20109;-57
2023/08/20 02:28:17;;;;;;;28.42;18.35;;;21.30;99.90;;;;;;5008843;28;20057;-55
2023/08/20 02:30:45;;;;;;;21.50;17.25;;;21.30;99.90;;;;;;5008901;28;20041;-57
2023/08/20 02:33:11;;;;;;;19.60;16.80;;;21.30;99.90;;;;;;5007272;28;20493;-57
2023/08/20 02:35:40;;;;;;;19.23;16.17;;;21.20;99.90;;;;;;5008359;28;20033;-56
2023/08/20 02:38:06;;;;;;;20.52;16.27;;;21.20;99.90;;;;;;5008455;28;20034;-56
2023/08/20 02:40:32;;;;;;;20.33;16.70;;;21.20;99.90;;;;;;5008302;28;20025;-55
2023/08/20 02:42:57;;;;;;;25.40;17.73;;;21.20;99.90;;;;;;5008438;28;20018;-56
2023/08/20 02:45:23;;;;;;;21.27;17.13;;;21.10;99.90;;;;;;5006928;28;20100;-55
2023/08/20 02:47:49;;;;;;;23.65;18.65;;;21.10;99.90;;;;;;5007238;28;20094;-55
2023/08/20 02:50:15;;;;;;;27.40;17.67;;;21.10;99.90;;;;;;5008388;28;20034;-56
2023/08/20 02:52:42;;;;;;;19.90;17.00;;;21.10;99.90;;;;;;5008426;28;20496;-56
2023/08/20 02:55:08;;;;;;;21.30;17.83;;;21.10;99.90;;;;;;5008172;28;20431;-56
2023/08/20 02:57:34;;;;;;;23.17;17.38;;;21.00;99.90;;;;;;5008442;28;20100;-55
2023/08/20 02:59:59;;;;;;;21.38;17.45;;;21.00;99.90;;;;;;5008177;28;20036;-56
2023/08/20 03:02:25;;;;;;;23.73;17.83;;;21.00;99.90;;;;;;5008116;28;20055;-56
2023/08/20 03:04:50;;;;;;;24.30;17.13;;;20.90;99.90;;;;;;5007988;28;20079;-56
2023/08/20 03:07:16;;;;;;;25.58;17.10;;;20.90;99.90;;;;;;5008179;28;20030;-56
2023/08/20 03:09:41;;;;;;;20.42;15.40;;;20.80;99.90;;;;;;5008039;28;20394;-56
2023/08/20 03:12:07;;;;;;;21.95;15.52;;;20.80;99.90;;;;;;5008108;28;20397;-56
2023/08/20 03:14:32;;;;;;;18.58;13.50;;;20.70;99.90;;;;;;5008028;28;20073;-56
2023/08/20 03:16:58;;;;;;;20.02;14.32;;;20.70;99.90;;;;;;5007972;28;20445;-54
2023/08/20 03:19:23;;;;;;;17.40;13.68;;;20.60;99.90;;;;;;5006843;28;20132;-56
2023/08/20 03:21:49;;;;;;;16.35;13.35;;;20.60;99.90;;;;;;5008032;28;20079;-55
2023/08/20 03:24:14;;;;;;;19.40;13.68;;;20.60;99.90;;;;;;4999665;28;20213;-54
2023/08/20 03:26:40;;;;;;;19.35;13.30;;;20.50;99.90;;;;;;5007899;28;20109;-55
2023/08/20 03:29:05;;;;;;;15.63;12.13;;;20.40;99.90;;;;;;5008148;28;20030;-55
2023/08/20 03:31:31;;;;;;;17.00;12.07;;;20.40;99.90;;;;;;5008127;28;20065;-55
2023/08/20 03:33:57;;;;;;;19.17;13.40;;;20.40;99.90;;;;;;5006448;28;20350;-55
2023/08/20 03:36:22;;;;;;;19.48;14.80;;;20.30;99.90;;;;;;5006189;28;20517;-56
2023/08/20 03:38:48;;;;;;;19.45;13.00;;;20.30;99.90;;;;;;5037347;28;20474;-55
2023/08/20 03:41:14;;;;;;;15.02;12.38;;;20.20;99.90;;;;;;5003832;28;20159;-55
2023/08/20 03:43:39;;;;;;;14.70;12.55;;;20.20;99.90;;;;;;5007652;28;20086;-55
2023/08/20 03:46:05;;;;;;;13.65;10.98;;;20.10;99.90;;;;;;5007238;28;20469;-55
2023/08/20 03:48:30;;;;;;;16.55;13.07;;;20.20;99.90;;;;;;5007484;28;20029;-57
2023/08/20 03:50:56;;;;;;;14.77;11.73;;;20.10;99.90;;;;;;5007769;28;20028;-57
2023/08/20 03:53:22;;;;;;;17.23;13.23;;;20.10;99.90;;;;;;4999277;28;20068;-57
2023/08/20 03:55:49;;;;;;;20.30;12.23;;;20.00;99.90;;;;;;5006710;28;20022;-57
2023/08/20 03:58:15;;;;;;;15.25;11.70;;;20.00;99.90;;;;;;5007562;28;20083;-56
2023/08/20 04:00:40;;;;;;;19.67;13.43;;;20.00;99.90;;;;;;5006130;28;20021;-56
2023/08/20 04:03:07;;;;;;;22.38;13.70;;;20.00;99.90;;;;;;5007634;28;20082;-56
2023/08/20 04:05:38;;;;;;;19.52;13.77;;;19.90;99.90;;;;;;5006816;28;20025;-56
2023/08/20 04:08:05;;;;;;;19.00;13.43;;;19.90;99.90;;;;;;5007406;28;20101;-56
2023/08/20 04:10:31;;;;;;;18.20;13.35;;;20.00;99.90;;;;;;5007085;28;20041;-56
2023/08/20 04:12:57;;;;;;;15.52;13.00;;;20.00;99.90;;;;;;5005607;28;20475;-56
2023/08/20 04:15:22;;;;;;;15.13;11.45;;;20.00;99.90;;;;;;4997282;28;20026;-56
2023/08/20 04:17:48;;;;;;;16.55;12.73;;;20.00;99.90;;;;;;5007461;28;20026;-56
2023/08/20 04:20:14;;;;;;;15.98;12.05;;;20.00;99.90;;;;;;5007221;28;20026;-56
2023/08/20 04:22:40;;;;;;;15.90;12.65;;;20.00;99.90;;;;;;5006771;28;20375;-56
2023/08/20 04:25:06;;;;;;;15.10;12.48;;;20.00;99.90;;;;;;5006987;28;20100;-56
2023/08/20 04:27:32;;;;;;;19.17;13.43;;;19.90;99.90;;;;;;5006983;28;20428;-56
2023/08/20 04:29:57;;;;;;;17.98;14.20;;;19.90;99.90;;;;;;5007128;28;20101;-56
2023/08/20 04:32:23;;;;;;;19.58;13.70;;;19.90;99.90;;;;;;5003665;28;20034;-56
2023/08/20 04:34:51;;;;;;;18.45;12.77;;;19.90;99.90;;;;;;4996992;28;20155;-56
2023/08/20 04:37:18;;;;;;;18.52;13.68;;;19.90;99.90;;;;;;4996266;28;20018;-56
2023/08/20 04:39:44;;;;;;;19.95;14.25;;;19.90;99.90;;;;;;4996530;28;20022;-56
2023/08/20 04:42:09;;;;;;;17.30;14.07;;;19.90;99.90;;;;;;4979525;28;20605;-56
2023/08/20 04:44:35;;;;;;;18.92;15.15;;;19.90;99.90;;;;;;4997173;28;20034;-56
2023/08/20 04:47:01;;;;;;;19.17;15.73;;;19.90;99.90;;;;;;4996490;28;20018;-56
2023/08/20 04:49:28;;;;;;;24.77;17.80;;;19.90;99.90;;;;;;4996792;28;20101;-56
2023/08/20 04:51:54;;;;;;;23.17;17.98;;;19.90;99.90;;;;;;4994324;28;20026;-56
2023/08/20 04:54:19;;;;;;;22.55;18.67;;;19.90;99.90;;;;;;4994918;28;20306;-56
2023/08/20 04:56:45;;;;;;;27.60;18.92;;;19.90;99.90;;;;;;4994198;28;20049;-56
2023/08/20 04:59:11;;;;;;;24.63;17.35;;;19.90;99.90;;;;;;4996206;28;20022;-56
2023/08/20 05:01:38;;;;;;;23.35;18.15;;;19.90;99.90;;;;;;4994794;28;20010;-56
2023/08/20 05:04:04;;;;;;;22.08;15.05;;;19.90;99.90;;;;;;4996623;28;20028;-56
2023/08/20 05:06:29;;;;;;;21.77;16.85;;;20.00;99.90;;;;;;5006859;28;20026;-56
2023/08/20 05:08:55;;;;;;;23.25;17.17;;;20.00;99.90;;;;;;5012984;28;20082;-56
2023/08/20 05:11:20;;;;;;;26.95;19.20;;;20.00;99.90;;;;;;4998330;28;20030;-56
2023/08/20 05:13:49;;;;;;;27.38;18.08;;;20.00;99.90;;;;;;4998829;28;20026;-56
2023/08/20 05:16:15;;;;;;;24.52;16.67;;;20.00;99.90;;;;;;4998472;28;20057;-56
2023/08/20 05:18:40;;;;;;;26.23;18.85;;;20.00;99.90;;;;;;5003212;28;20080;-55
2023/08/20 05:21:06;;;;;;;22.50;15.85;;;20.10;99.90;;;;;;4997179;28;20026;-56
2023/08/20 05:23:31;;;;;;;25.27;15.88;;;20.20;99.90;;;;;;4996935;28;20109;-57
2023/08/20 05:25:57;;;;;;;18.67;15.35;;;20.20;99.90;;;;;;5006203;28;20018;-57
2023/08/20 05:28:22;;;;;;;21.02;14.15;;;20.20;99.90;;;;;;5006256;28;20025;-57
2023/08/20 05:30:56;;;;;;;23.40;17.42;;;20.20;99.90;;;;;;5004851;28;20531;-56
2023/08/20 05:33:22;;;;;;;15.02;13.00;;;20.30;99.90;;;;;;5006435;28;20022;-56
2023/08/20 05:35:49;;;;;;;18.52;13.00;;;20.20;99.90;;;;;;5007938;28;20105;-56
2023/08/20 05:38:14;;;;;;;14.85;11.88;;;20.30;99.90;;;;;;4998249;28;20025;-56
2023/08/20 05:40:40;;;;;;;13.95;12.15;;;20.30;99.90;;;;;;4996439;28;20513;-56
2023/08/20 05:43:05;;;;;;;16.95;12.60;;;20.30;99.90;;;;;;4998533;28;20024;-56
2023/08/20 05:45:31;;;;;;;18.23;13.18;;;20.30;99.90;;;;;;4994712;28;20066;-56
2023/08/20 05:47:56;;;;;;;17.42;12.45;;;20.30;99.90;;;;;;5009410;28;20486;-56
2023/08/20 05:50:21;;;;;;;14.95;11.80;;;20.30;99.90;;;;;;5009600;28;20033;-55
2023/08/20 05:52:48;;;;;;;22.63;15.75;;;20.30;99.90;;;;;;5009041;28;20026;-55
2023/08/20 05:58:36;;;;;;;18.33;13.27;;;20.40;99.90;;;;;;4975881;28;20089;-55
2023/08/20 06:01:01;;;;;;;28.27;16.30;;;20.40;99.90;;;;;;4970714;28;20439;-55
2023/08/20 06:03:27;;;;;;;18.05;12.25;;;20.40;99.90;;;;;;4965703;28;20045;-55
2023/08/20 06:05:52;;;;;;;13.38;11.38;;;20.40;99.90;;;;;;4958901;28;20031;-55
2023/08/20 06:08:17;;;;;;;25.65;15.52;;;20.40;99.90;;;;;;4959431;28;20031;-55
2023/08/20 06:10:43;;;;;;;14.35;11.77;;;20.50;99.90;;;;;;4965297;28;20050;-54
2023/08/20 06:13:09;;;;;;;19.65;12.02;;;20.50;99.90;;;;;;4965378;28;20089;-55
2023/08/20 06:15:35;;;;;;;12.68;10.02;;;20.60;99.90;;;;;;4969803;28;20515;-54
2023/08/20 06:18:00;;;;;;;15.98;11.25;;;20.60;99.90;;;;;;4995004;28;20102;-55
2023/08/20 06:20:26;;;;;;;13.57;9.98;;;20.70;99.90;;;;;;5008922;28;20045;-55
2023/08/20 06:22:51;;;;;;;18.48;11.20;;;20.80;99.90;;;;;;5025496;28;20033;-54
2023/08/20 06:25:17;;;;;;;14.85;10.38;;;20.80;99.90;;;;;;5092042;28;20072;-54
2023/08/20 06:27:42;;;;;;;15.98;10.40;;;20.90;99.90;;;;;;5023046;28;20029;-53
2023/08/20 06:30:09;;;;;;;13.35;9.68;;;21.00;99.90;;;;;;4994334;28;20027;-53
2023/08/20 06:32:35;;;;;;;12.98;9.73;;;21.10;99.90;;;;;;4937821;28;20114;-53
2023/08/20 06:35:00;;;;;;;9.65;7.93;;;21.10;99.90;;;;;;4784979;29;20510;-53
2023/08/20 06:37:25;;;;;;;12.23;8.05;;;21.20;99.90;;;;;;4717608;30;20046;-54
2023/08/20 06:39:51;;;;;;;11.82;8.57;;;21.30;99.90;;;;;;4698121;30;20034;-55
2023/08/20 06:42:16;;;;;;;13.82;7.93;;;21.40;99.90;;;;;;4697802;30;20033;-55
2023/08/20 06:44:42;;;;;;;12.50;8.55;;;21.30;99.90;;;;;;4697745;30;20052;-55
2023/08/20 06:47:07;;;;;;;13.00;8.13;;;21.40;99.90;;;;;;4697266;30;20076;-55
2023/08/20 06:49:33;;;;;;;11.27;7.63;;;21.40;99.90;;;;;;4697537;30;20532;-56
2023/08/20 06:51:58;;;;;;;11.30;7.57;;;21.40;99.90;;;;;;4697530;30;20543;-56
2023/08/20 06:54:24;;;;;;;8.60;7.68;;;21.50;99.90;;;;;;4697730;30;20112;-55
2023/08/20 06:56:49;;;;;;;20.52;9.07;;;21.60;99.90;;;;;;4697379;30;20114;-56
2023/08/20 06:59:16;;;;;;;11.50;7.75;;;21.60;99.90;;;;;;4697885;30;20416;-57
2023/08/20 07:01:41;;;;;;;12.15;7.45;;;21.60;99.90;;;;;;4699909;30;20469;-55
2023/08/20 07:04:07;;;;;;;11.70;7.20;;;21.70;99.90;;;;;;4697797;30;20060;-57
2023/08/20 07:06:33;;;;;;;11.30;6.97;;;21.80;99.90;;;;;;4697110;30;20037;-57
2023/08/20 07:08:58;;;;;;;11.68;6.68;;;21.80;99.90;;;;;;4697855;30;20037;-57
2023/08/20 07:11:24;;;;;;;9.30;5.78;;;21.90;99.90;;;;;;4711422;30;20057;-57
2023/08/20 07:13:49;;;;;;;8.07;6.30;;;21.90;99.90;;;;;;4710882;30;20080;-57
2023/08/20 07:16:15;;;;;;;11.50;5.90;;;21.90;99.90;;;;;;4697559;30;20557;-55
2023/08/20 07:18:40;;;;;;;9.52;5.78;;;21.90;99.90;;;;;;4696824;30;20401;-56
2023/08/20 07:21:07;;;;;;;9.10;5.70;;;22.00;99.90;;;;;;4697549;30;20142;-56
2023/08/20 07:23:33;;;;;;;9.38;6.32;;;22.10;99.90;;;;;;4697376;30;20473;-56
2023/08/20 07:26:10;;;;;;;12.07;6.03;;;22.20;99.90;;;;;;4697261;30;20091;-56
2023/08/20 07:31:20;;;;;;;12.52;5.90;;;22.40;99.90;;;;;;4704924;30;20027;-56
2023/08/20 07:33:50;;;;;;;9.63;5.68;;;22.50;99.90;;;;;;4705542;29;1063593;-57
2023/08/20 07:36:16;;;;;;;8.20;5.65;;;22.60;99.90;;;;;;4797163;29;20042;-58
2023/08/20 07:38:43;;;;;;;9.18;5.10;;;22.60;99.90;;;;;;4819886;29;20504;-58
2023/08/20 07:41:12;;;;;;;8.93;4.80;;;22.70;99.90;;;;;;4805997;29;20082;-58
2023/08/20 07:43:38;;;;;;;6.40;4.97;;;22.80;99.90;;;;;;4821188;29;20033;-58
2023/08/20 07:46:04;;;;;;;6.07;4.47;;;22.80;99.90;;;;;;4822170;29;20358;-58
2023/08/20 07:48:30;;;;;;;6.57;4.50;;;22.90;99.90;;;;;;4821843;29;20029;-58
2023/08/20 07:50:56;;;;;;;7.40;4.35;;;23.00;99.90;;;;;;4822008;29;20061;-58
2023/08/20 07:53:21;;;;;;;6.63;4.47;;;23.10;99.90;;;;;;4821907;29;20019;-58
2023/08/20 07:55:47;;;;;;;7.07;4.25;;;23.30;99.90;;;;;;4821299;29;20055;-56
2023/08/20 07:58:12;;;;;;;5.28;4.18;;;23.40;99.90;;;;;;4821507;29;20109;-56
2023/08/20 08:00:38;;;;;;;4.90;3.70;;;23.60;99.90;;;;;;4821862;29;20038;-56
2023/08/20 08:03:03;;;;;;;8.90;4.03;;;23.80;99.90;;;;;;4820182;29;20026;-56
2023/08/20 08:05:29;;;;;;;5.30;3.08;;;24.00;99.90;;;;;;4821557;29;20105;-56
2023/08/20 08:07:55;;;;;;;6.15;2.88;;;24.40;99.90;;;;;;4821424;29;20026;-55
2023/08/20 08:10:21;;;;;;;5.68;2.75;;;25.10;99.90;;;;;;4821098;29;20034;-56
2023/08/20 08:12:46;;;;;;;4.22;2.15;;;26.30;99.90;;;;;;4816907;29;20070;-56
2023/08/20 08:15:13;;;;;;;4.82;2.55;;;27.80;99.90;;;;;;4831587;29;20284;-56
2023/08/20 08:17:38;;;;;;;4.75;2.42;;;29.20;98.50;;;;;;4804517;29;20425;-57
2023/08/20 08:20:05;;;;;;;3.40;2.13;;;30.80;95.20;;;;;;4805021;29;20037;-57
2023/08/20 08:22:30;;;;;;;3.70;2.28;;;31.90;93.00;;;;;;4820048;29;20026;-56
2023/08/20 08:24:56;;;;;;;3.95;1.98;;;33.00;89.50;;;;;;4820958;29;20023;-56
2023/08/20 08:27:21;;;;;;;3.92;2.28;;;34.10;84.20;;;;;;4820582;29;20053;-58
2023/08/20 08:29:47;;;;;;;4.88;2.75;;;34.50;82.30;;;;;;4821375;29;20045;-57
2023/08/20 08:32:12;;;;;;;5.63;2.72;;;35.30;77.00;;;;;;4819733;29;20122;-55
2023/08/20 08:34:38;;;;;;;3.65;2.20;;;36.30;73.00;;;;;;4902021;29;20139;-56
2023/08/20 08:37:03;;;;;;;4.53;2.60;;;37.00;70.50;;;;;;4922463;29;20035;-56
2023/08/20 08:39:29;;;;;;;4.63;2.50;;;37.60;69.30;;;;;;4927057;29;20039;-58
2023/08/20 08:42:01;;;;;;;3.33;1.95;;;37.90;67.10;;;;;;4935154;29;20115;-58
2023/08/20 08:44:28;;;;;;;6.00;2.40;;;38.30;66.40;;;;;;4929215;29;20044;-58
2023/08/20 08:46:53;;;;;;;6.30;2.20;;;38.30;64.20;;;;;;4915299;29;20050;-58
2023/08/20 08:49:19;;;;;;;4.45;2.15;;;37.60;66.50;;;;;;4939060;29;20027;-58
2023/08/20 08:51:46;;;;;;;3.83;1.73;;;38.50;63.60;;;;;;4914408;29;20027;-59
2023/08/20 08:54:13;;;;;;;3.20;2.40;;;39.20;61.60;;;;;;4921975;29;20036;-59
2023/08/20 08:56:39;;;;;;;5.38;2.20;;;39.60;60.80;;;;;;4928248;29;20056;-59
2023/08/20 08:59:05;;;;;;;4.40;2.05;;;40.10;60.00;;;;;;4939916;29;20168;-59
2023/08/20 09:01:31;;;;;;;3.28;1.98;;;39.30;60.60;;;;;;4924269;29;20082;-59
2023/08/20 09:03:57;;;;;;;3.08;1.90;;;39.40;60.00;;;;;;4935961;29;20091;-60
2023/08/20 09:06:22;;;;;;;4.20;2.22;;;39.90;60.30;;;;;;4926777;29;20119;-60
2023/08/20 09:08:48;;;;;;;2.15;1.90;;;40.00;59.60;;;;;;4937975;29;20304;-59
2023/08/20 09:11:13;;;;;;;4.10;2.50;;;40.50;58.70;;;;;;4931780;29;20031;-59
2023/08/20 09:13:41;;;;;;;5.03;1.73;;;39.80;61.20;;;;;;4943249;29;20026;-60
2023/08/20 09:16:11;;;;;;;2.25;1.70;;;40.10;60.10;;;;;;4931513;29;20103;-59
2023/08/20 09:18:44;;;;;;;4.00;2.00;;;40.30;59.50;;;;;;4934929;29;20027;-59
2023/08/20 09:21:11;;;;;;;2.08;1.77;;;40.40;58.30;;;;;;4942569;29;20031;-59
2023/08/20 09:23:37;;;;;;;2.90;1.85;;;41.10;57.30;;;;;;4925915;29;20036;-59
2023/08/20 09:26:04;;;;;;;4.72;1.90;;;41.40;56.10;;;;;;4936882;29;20531;-59
2023/08/20 09:28:44;;;;;;;3.20;1.90;;;41.50;57.30;;;;;;4921062;29;20034;-59
2023/08/20 09:31:10;;;;;;;5.28;2.20;;;41.20;57.60;;;;;;4918397;29;20041;-60
2023/08/20 09:33:36;;;;;;;3.08;2.08;;;41.30;55.40;;;;;;4923471;28;20104;-59
2023/08/20 09:36:03;;;;;;;3.00;1.83;;;41.20;55.90;;;;;;4960729;28;20109;-59
2023/08/20 09:38:29;;;;;;;3.10;1.83;;;41.10;55.60;;;;;;4969898;28;20073;-59
2023/08/20 09:40:58;;;;;;;3.17;1.98;;;40.70;55.20;;;;;;4970499;28;20477;-59
2023/08/20 09:43:28;;;;;;;6.35;2.17;;;40.90;56.20;;;;;;4953472;28;20019;-59
2023/08/20 09:45:55;;;;;;;3.20;2.15;;;40.90;54.90;;;;;;4970777;28;20064;-59
2023/08/20 09:48:22;;;;;;;2.30;2.10;;;40.70;56.40;;;;;;4952218;28;20015;-59
2023/08/20 09:50:49;;;;;;;6.30;1.90;;;40.90;55.90;;;;;;4937425;28;20488;-60
2023/08/20 09:53:43;;;;;;;5.68;2.15;;;40.70;56.90;;;;;;4951486;28;20028;-60
2023/08/20 09:56:29;;;;;;;4.60;2.58;;;41.10;55.10;;;;;;4930533;28;20027;-60
2023/08/20 09:58:57;;;;;;;5.10;2.35;;;40.60;57.20;;;;;;4955982;28;20467;-60
2023/08/20 10:01:24;;;;;;;4.28;2.60;;;40.70;56.00;;;;;;4962176;28;20034;-60
2023/08/20 10:03:50;;;;;;;2.50;2.03;;;40.40;56.10;;;;;;4944524;28;20035;-60
2023/08/20 10:06:16;;;;;;;4.57;2.05;;;40.90;57.50;;;;;;4944634;29;20032;-60
2023/08/20 10:08:41;;;;;;;5.47;2.10;;;40.30;59.40;;;;;;4960583;28;20120;-60
2023/08/20 10:11:07;;;;;;;4.32;1.90;;;40.30;58.00;;;;;;4947616;28;20531;-60
2023/08/20 10:13:33;;;;;;;2.85;2.10;;;40.60;58.20;;;;;;4941088;28;20485;-60
2023/08/20 10:15:58;;;;;;;3.03;1.88;;;40.20;57.40;;;;;;4948047;28;20051;-60
2023/08/20 10:18:24;;;;;;;3.13;2.30;;;40.10;58.00;;;;;;4935114;28;20033;-60
2023/08/20 10:20:51;;;;;;;4.18;2.30;;;40.40;56.00;;;;;;4933386;28;20024;-60
2023/08/20 10:23:22;;;;;;;3.80;2.13;;;40.00;56.70;;;;;;4940217;29;20351;-60
2023/08/20 10:25:48;;;;;;;5.40;2.42;;;40.20;58.50;;;;;;4946723;28;20202;-60
2023/08/20 10:28:20;;;;;;;4.07;2.30;;;39.40;57.90;;;;;;4949448;28;20093;-60
2023/08/20 10:31:12;;;;;;;3.10;2.63;;;38.80;57.20;;;;;;4947090;28;20030;-60
2023/08/20 10:33:48;;;;;;;2.00;1.80;;;38.00;61.40;;;;;;4954478;28;20396;-60
2023/08/20 10:36:24;;;;;;;4.25;3.00;;;38.20;61.30;;;;;;4979876;28;20117;-60
2023/08/20 10:38:50;;;;;;;5.32;2.10;;;38.80;60.00;;;;;;4975808;28;20019;-60
2023/08/20 10:41:16;;;;;;;5.07;2.70;;;38.60;61.50;;;;;;4960256;28;20053;-60
2023/08/20 10:43:49;;;;;;;2.60;2.10;;;39.40;59.10;;;;;;4977994;28;20606;-60
2023/08/20 10:46:17;;;;;;;2.60;2.10;;;39.80;60.70;;;;;;4972902;28;20057;-60
2023/08/20 10:49:06;;;;;;;2.80;2.42;;;39.50;59.10;;;;;;4976538;28;20122;-60
2023/08/20 10:51:32;;;;;;;3.78;2.20;;;39.50;60.10;;;;;;4977429;28;20092;-58
2023/08/20 10:54:01;;;;;;;3.35;2.30;;;40.30;59.00;;;;;;4980932;28;20022;-59
2023/08/20 10:56:48;;;;;;;4.32;1.95;;;40.40;58.50;;;;;;4972465;28;20022;-59
2023/08/20 10:59:17;;;;;;;4.07;2.13;;;40.30;57.70;;;;;;4980586;28;20425;-59
2023/08/20 11:01:45;;;;;;;3.03;1.90;;;40.50;57.00;;;;;;4977378;28;20027;-59
2023/08/20 11:04:11;;;;;;;3.30;2.10;;;40.40;58.60;;;;;;4972076;28;20026;-59
2023/08/20 11:06:39;;;;;;;3.30;1.85;;;40.50;57.60;;;;;;4979504;28;20030;-59
2023/08/20 11:09:05;;;;;;;5.40;2.43;;;40.60;57.80;;;;;;4984074;28;20022;-58
2023/08/20 11:11:31;;;;;;;2.60;2.10;;;40.50;59.60;;;;;;4977217;28;20022;-59
2023/08/20 11:14:04;;;;;;;7.13;1.90;;;40.20;56.70;;;;;;4977857;28;20034;-59
2023/08/20 11:16:30;;;;;;;4.63;2.10;;;40.40;56.70;;;;;;4975641;28;20027;-59
2023/08/20 11:18:57;;;;;;;3.65;1.85;;;40.70;57.60;;;;;;4976234;28;20076;-58
2023/08/20 11:21:23;;;;;;;3.85;2.10;;;40.50;57.70;;;;;;4959042;28;20281;-59
2023/08/20 11:23:48;;;;;;;7.00;2.25;;;40.30;56.90;;;;;;4977946;28;20062;-58
2023/08/20 11:26:14;;;;;;;3.15;1.95;;;40.20;59.20;;;;;;4974743;28;20026;-59
2023/08/20 11:28:46;;;;;;;4.47;2.08;;;40.00;57.90;;;;;;4977047;28;20018;-59
2023/08/20 11:31:12;;;;;;;4.85;2.17;;;40.40;57.50;;;;;;4974534;28;20015;-59
2023/08/20 11:33:37;;;;;;;3.35;2.00;;;40.10;59.10;;;;;;4975718;28;20045;-59
2023/08/20 11:36:05;;;;;;;3.45;2.00;;;40.30;59.00;;;;;;4964312;28;20131;-59
2023/08/20 11:38:31;;;;;;;3.80;2.00;;;39.40;54.90;;;;;;4958287;28;20022;-59
2023/08/20 11:40:59;;;;;;;2.50;1.67;;;39.50;56.00;;;;;;4964171;28;20031;-59
2023/08/20 11:43:28;;;;;;;2.20;1.60;;;39.30;57.60;;;;;;4967672;28;20022;-59
2023/08/20 11:45:54;;;;;;;2.85;1.80;;;39.60;56.80;;;;;;4964138;28;20368;-59
2023/08/20 11:48:21;;;;;;;1.95;1.60;;;39.90;58.20;;;;;;4967561;28;20025;-59
2023/08/20 11:50:47;;;;;;;3.42;1.63;;;40.00;55.10;;;;;;4955550;28;20397;-60
2023/08/20 11:53:12;;;;;;;3.83;1.70;;;40.40;55.20;;;;;;4959668;28;20027;-60
2023/08/20 11:55:42;;;;;;;2.67;1.50;;;39.90;55.20;;;;;;4962673;28;20026;-60
2023/08/20 11:58:12;;;;;;;1.75;1.60;;;39.90;53.40;;;;;;4961603;28;20531;-60
2023/08/20 12:00:38;;;;;;;3.50;1.83;;;39.50;55.70;;;;;;4964930;28;20031;-60
2023/08/20 12:03:05;;;;;;;3.55;1.70;;;39.70;54.40;;;;;;4968056;28;20045;-60
2023/08/20 12:05:30;;;;;;;1.98;1.80;;;39.80;53.70;;;;;;4968782;28;20015;-60
2023/08/20 12:08:01;;;;;;;3.85;1.65;;;39.50;54.70;;;;;;4968541;28;20030;-60
2023/08/20 12:10:28;;;;;;;4.63;2.05;;;39.20;58.40;;;;;;4959743;28;20019;-60
2023/08/20 12:12:55;;;;;;;4.65;2.42;;;38.40;57.70;;;;;;4961717;28;20079;-60
2023/08/20 12:15:21;;;;;;;6.20;2.20;;;37.50;59.60;;;;;;4967807;28;20412;-59
2023/08/20 12:18:04;;;;;;;3.63;1.90;;;36.80;59.20;;;;;;4948831;28;20020;-59
2023/08/20 12:20:32;;;;;;;2.75;2.03;;;36.30;64.40;;;;;;4949123;28;20012;-59
2023/08/20 12:23:00;;;;;;;4.28;2.30;;;35.90;60.50;;;;;;4954412;28;20051;-59
2023/08/20 12:25:25;;;;;;;4.72;2.50;;;35.70;61.70;;;;;;4967253;28;20361;-59
2023/08/20 12:27:51;;;;;;;4.65;2.33;;;35.70;61.90;;;;;;4966181;28;20069;-58
2023/08/20 12:30:16;;;;;;;3.97;2.22;;;35.20;63.90;;;;;;4957825;28;20652;-59
2023/08/20 12:32:42;;;;;;;3.25;2.10;;;35.10;65.00;;;;;;4967658;28;20035;-59
2023/08/20 12:35:08;;;;;;;5.15;2.67;;;35.00;63.40;;;;;;4951368;28;20039;-58
2023/08/20 12:37:34;;;;;;;5.78;2.80;;;34.70;63.10;;;;;;4975707;28;20040;-58
2023/08/20 12:39:59;;;;;;;6.15;2.65;;;34.30;64.80;;;;;;4936767;28;20465;-58